Time;durP1;ratioP1;P1;durP2;ratioP2;P2;SDS_P1;SDS_P2;PMS_P1;PMS_P2;Temp;Humidity;BMP_temperature;BMP_pressure;BME280_temperature;BME280_humidity;BME280_pressure;Samples;Min_cycle;Max_cycle;Signal;HPM_P1;HPM_P2
2021/06/12 00:00:38;;;;;;;2.83;1.30;;;15.60;74.40;;;;;;5108320;28;20044;-79
2021/06/12 00:03:05;;;;;;;2.72;1.52;;;15.60;75.20;;;;;;5108651;28;20027;-79
2021/06/12 00:05:32;;;;;;;2.60;1.20;;;15.70;74.90;;;;;;5091499;28;20027;-79
2021/06/12 00:07:58;;;;;;;5.55;2.40;;;15.70;75.00;;;;;;5091980;28;20385;-76
2021/06/12 00:10:34;;;;;;;3.05;1.48;;;15.80;74.90;;;;;;5109935;28;20095;-78
2021/06/12 00:13:00;;;;;;;6.20;1.65;;;15.70;75.10;;;;;;5110299;28;20136;-77
2021/06/12 00:15:27;;;;;;;2.38;1.17;;;15.80;75.00;;;;;;5108540;28;20069;-79
2021/06/12 00:17:53;;;;;;;3.70;1.60;;;15.70;75.00;;;;;;5108657;28;20030;-76
2021/06/12 00:20:22;;;;;;;2.70;1.40;;;15.60;75.10;;;;;;5108001;28;20099;-78
2021/06/12 00:22:47;;;;;;;3.60;1.60;;;15.60;75.40;;;;;;5109645;28;20031;-78
2021/06/12 00:25:15;;;;;;;3.35;1.52;;;15.60;75.70;;;;;;5109506;28;20038;-78
2021/06/12 00:27:41;;;;;;;5.60;1.75;;;15.50;75.70;;;;;;5109537;28;20038;-77
2021/06/12 00:30:12;;;;;;;3.95;1.77;;;15.50;75.80;;;;;;5109518;28;20023;-78
2021/06/12 00:32:38;;;;;;;2.83;1.23;;;15.50;76.10;;;;;;5109522;28;20063;-77
2021/06/12 00:35:06;;;;;;;4.35;1.98;;;15.50;76.00;;;;;;5108543;28;20016;-81
2021/06/12 00:37:32;;;;;;;3.10;1.77;;;15.40;76.00;;;;;;5109561;27;20058;-78
2021/06/12 00:39:57;;;;;;;3.03;1.58;;;15.30;76.10;;;;;;5091197;28;20443;-78
2021/06/12 00:42:23;;;;;;;4.97;1.77;;;15.20;76.30;;;;;;5109296;28;20032;-77
2021/06/12 00:44:49;;;;;;;4.28;1.65;;;15.10;76.60;;;;;;5108028;28;20390;-76
2021/06/12 00:47:15;;;;;;;4.13;2.10;;;15.00;76.90;;;;;;5090905;28;20106;-77
2021/06/12 00:49:40;;;;;;;4.47;1.70;;;14.90;77.30;;;;;;5090731;28;20030;-77
2021/06/12 00:52:06;;;;;;;2.30;1.50;;;14.90;77.60;;;;;;5073944;28;20247;-77
2021/06/12 00:54:32;;;;;;;3.70;2.05;;;14.80;78.00;;;;;;5108358;28;20381;-79
2021/06/12 00:56:59;;;;;;;3.97;1.73;;;14.70;78.30;;;;;;5109348;28;20100;-78
2021/06/12 00:59:25;;;;;;;4.60;2.03;;;14.70;78.60;;;;;;5107674;28;20051;-77
2021/06/12 01:01:51;;;;;;;2.92;1.70;;;14.60;78.80;;;;;;5074202;28;20112;-79
2021/06/12 01:04:17;;;;;;;2.70;1.60;;;14.60;79.70;;;;;;5107880;28;20066;-77
2021/06/12 01:06:43;;;;;;;3.70;1.70;;;14.50;79.50;;;;;;5090683;28;20042;-78
2021/06/12 01:09:09;;;;;;;5.90;2.53;;;14.50;79.80;;;;;;5107301;28;20023;-79
2021/06/12 01:11:43;;;;;;;3.08;1.80;;;14.40;80.00;;;;;;5090759;28;20405;-77
2021/06/12 01:14:17;;;;;;;2.90;1.55;;;14.40;80.90;;;;;;5109334;28;20373;-78
2021/06/12 01:17:15;;;;;;;5.40;1.98;;;14.30;80.60;;;;;;5108909;28;20028;-78
2021/06/12 01:19:52;;;;;;;3.75;1.75;;;14.30;81.00;;;;;;5106988;28;20058;-77
2021/06/12 01:22:41;;;;;;;4.38;1.65;;;14.30;81.00;;;;;;5109003;28;20031;-78
2021/06/12 01:25:51;;;;;;;6.00;1.70;;;14.20;81.40;;;;;;5107364;28;20031;-79
2021/06/12 01:28:35;;;;;;;3.67;1.92;;;14.20;81.70;;;;;;5085606;28;20088;-78
2021/06/12 01:31:02;;;;;;;3.67;1.88;;;14.20;81.70;;;;;;5107066;28;20020;-78
2021/06/12 01:33:28;;;;;;;3.83;2.17;;;14.10;81.90;;;;;;5108696;28;20035;-80
2021/06/12 01:36:00;;;;;;;3.38;1.65;;;14.10;82.20;;;;;;5090256;28;20503;-78
2021/06/12 01:38:29;;;;;;;2.97;1.75;;;14.10;82.60;;;;;;5108270;28;20030;-80
2021/06/12 01:41:02;;;;;;;4.03;1.88;;;14.10;82.90;;;;;;5108337;28;20441;-77
2021/06/12 01:43:30;;;;;;;5.00;1.75;;;14.10;83.10;;;;;;5106998;28;20490;-78
2021/06/12 01:45:56;;;;;;;2.70;1.95;;;14.10;83.20;;;;;;5108372;28;20028;-78
2021/06/12 01:48:23;;;;;;;3.83;2.00;;;14.00;83.50;;;;;;5106883;28;20054;-77
2021/06/12 01:50:50;;;;;;;3.20;1.83;;;14.10;84.00;;;;;;5072993;28;20024;-78
2021/06/12 01:53:19;;;;;;;4.70;1.90;;;14.20;84.20;;;;;;5107050;28;20599;-77
2021/06/12 01:55:47;;;;;;;4.75;1.95;;;14.20;84.10;;;;;;5106731;28;20020;-78
2021/06/12 01:58:22;;;;;;;6.00;2.17;;;14.20;84.00;;;;;;5108290;28;20024;-78
2021/06/12 02:00:49;;;;;;;5.18;2.20;;;14.20;84.80;;;;;;5106920;28;20039;-77
2021/06/12 02:03:16;;;;;;;6.35;2.05;;;14.30;84.50;;;;;;5107018;28;20019;-77
2021/06/12 02:05:44;;;;;;;4.07;2.25;;;14.30;84.60;;;;;;5089924;28;20031;-80
2021/06/12 02:08:11;;;;;;;5.68;2.08;;;14.40;84.60;;;;;;5107371;28;20097;-78
2021/06/12 02:10:38;;;;;;;6.20;2.10;;;14.40;84.50;;;;;;5107223;28;20031;-78
2021/06/12 02:13:04;;;;;;;4.82;2.00;;;14.40;84.70;;;;;;5108170;28;20020;-77
2021/06/12 02:15:31;;;;;;;4.75;1.88;;;14.40;84.80;;;;;;5108096;28;20043;-80
2021/06/12 02:18:00;;;;;;;3.15;2.10;;;14.50;85.00;;;;;;5108159;28;20151;-77
2021/06/12 02:20:26;;;;;;;3.58;1.80;;;14.50;84.90;;;;;;5114380;28;20016;-76
2021/06/12 02:22:55;;;;;;;4.78;1.95;;;14.50;84.90;;;;;;5093938;28;20393;-78
2021/06/12 02:25:21;;;;;;;4.65;2.00;;;14.60;85.00;;;;;;5111471;28;20047;-79
2021/06/12 02:27:58;;;;;;;5.07;2.17;;;14.70;85.10;;;;;;5112627;28;20489;-78
2021/06/12 02:30:39;;;;;;;4.53;2.00;;;14.70;85.00;;;;;;5112731;28;20031;-78
2021/06/12 02:33:07;;;;;;;5.25;1.90;;;14.80;84.80;;;;;;5112298;28;20355;-77
2021/06/12 02:35:33;;;;;;;6.90;2.70;;;14.80;84.60;;;;;;5110960;28;20020;-78
2021/06/12 02:37:59;;;;;;;7.10;2.38;;;14.80;84.70;;;;;;5110603;28;20055;-80
2021/06/12 02:40:25;;;;;;;7.03;2.55;;;14.80;84.70;;;;;;5111811;28;20060;-78
2021/06/12 02:42:51;;;;;;;8.00;2.92;;;14.90;84.70;;;;;;5093655;28;20122;-79
2021/06/12 02:45:17;;;;;;;6.28;1.80;;;14.90;84.70;;;;;;5093404;28;20112;-78
2021/06/12 02:47:51;;;;;;;4.75;1.88;;;14.80;84.70;;;;;;5110987;28;20388;-76
2021/06/12 02:50:19;;;;;;;4.35;1.98;;;14.80;84.80;;;;;;5112420;28;20051;-77
2021/06/12 02:52:46;;;;;;;7.63;2.25;;;14.90;84.80;;;;;;5112449;28;20088;-77
2021/06/12 02:55:13;;;;;;;9.40;2.42;;;14.90;84.70;;;;;;5110905;28;20068;-77
2021/06/12 02:57:44;;;;;;;4.57;2.20;;;14.90;84.90;;;;;;5093556;28;20023;-77
2021/06/12 03:00:10;;;;;;;4.03;1.90;;;14.90;84.90;;;;;;5111296;28;20039;-76
2021/06/12 03:02:41;;;;;;;3.13;1.85;;;14.90;84.90;;;;;;5110475;28;20258;-80
2021/06/12 03:05:12;;;;;;;8.27;2.30;;;14.90;84.90;;;;;;5110072;28;20232;-79
2021/06/12 03:07:39;;;;;;;7.90;2.33;;;14.90;84.90;;;;;;5109847;28;20030;-78
2021/06/12 03:10:05;;;;;;;4.80;2.03;;;15.00;85.00;;;;;;5109873;28;20051;-77
2021/06/12 03:12:32;;;;;;;7.53;2.00;;;15.00;84.90;;;;;;5109586;28;20140;-79
2021/06/12 03:15:00;;;;;;;5.78;1.92;;;15.00;84.90;;;;;;5110055;28;20024;-80
2021/06/12 03:17:28;;;;;;;3.28;2.10;;;15.00;84.80;;;;;;5109969;28;20019;-80
2021/06/12 03:19:56;;;;;;;6.03;1.98;;;15.00;84.80;;;;;;5109670;28;20024;-78
2021/06/12 03:22:22;;;;;;;6.15;1.95;;;15.10;84.90;;;;;;5111089;28;20027;-79
2021/06/12 03:24:48;;;;;;;4.00;1.92;;;15.10;84.80;;;;;;5109867;28;20047;-80
2021/06/12 03:27:15;;;;;;;4.13;1.90;;;15.10;84.70;;;;;;5109925;28;20072;-77
2021/06/12 03:29:41;;;;;;;3.55;1.80;;;15.10;84.60;;;;;;5110482;28;20058;-78
2021/06/12 03:32:07;;;;;;;4.32;2.53;;;15.10;84.50;;;;;;5110069;28;20063;-77
2021/06/12 03:34:34;;;;;;;3.33;1.52;;;15.00;84.50;;;;;;5093374;28;20044;-79
2021/06/12 03:37:01;;;;;;;4.93;1.88;;;15.00;84.60;;;;;;5111667;28;20043;-78
2021/06/12 03:39:26;;;;;;;3.28;1.42;;;15.00;84.60;;;;;;5093594;28;20027;-78
2021/06/12 03:41:53;;;;;;;6.07;2.22;;;14.90;84.70;;;;;;5110310;28;20028;-77
2021/06/12 03:44:20;;;;;;;3.30;1.73;;;14.90;84.90;;;;;;5093038;28;20725;-79
2021/06/12 03:46:49;;;;;;;4.88;2.15;;;14.90;84.90;;;;;;5109908;28;20066;-77
2021/06/12 03:49:16;;;;;;;5.97;1.60;;;14.90;84.80;;;;;;5111087;28;20046;-77
2021/06/12 03:51:42;;;;;;;3.58;1.77;;;14.90;84.90;;;;;;5109599;28;20031;-79
2021/06/12 03:54:08;;;;;;;4.07;1.90;;;14.90;84.90;;;;;;5111234;28;20110;-78
2021/06/12 03:56:37;;;;;;;3.92;2.10;;;14.90;84.90;;;;;;5109762;28;20127;-78
2021/06/12 03:59:05;;;;;;;2.38;1.48;;;14.90;84.90;;;;;;5108971;28;20062;-78
2021/06/12 04:01:31;;;;;;;6.28;1.75;;;14.90;84.70;;;;;;5111418;27;20120;-76
2021/06/12 04:03:57;;;;;;;3.95;1.40;;;14.90;84.80;;;;;;5109619;28;20073;-79
2021/06/12 04:06:22;;;;;;;4.03;1.63;;;14.90;84.80;;;;;;5110030;28;20038;-78
2021/06/12 04:08:49;;;;;;;3.25;1.60;;;14.90;84.70;;;;;;5111103;28;20024;-77
2021/06/12 04:11:15;;;;;;;5.85;1.73;;;14.90;84.70;;;;;;5109344;28;20066;-78
2021/06/12 04:13:41;;;;;;;3.38;1.90;;;14.90;84.60;;;;;;5110438;28;20027;-78
2021/06/12 04:16:11;;;;;;;7.53;2.08;;;14.90;84.70;;;;;;5110531;28;20034;-79
2021/06/12 04:18:37;;;;;;;2.67;1.40;;;14.90;84.90;;;;;;5110485;28;20028;-78
2021/06/12 04:21:04;;;;;;;3.67;1.58;;;14.90;84.70;;;;;;5108544;28;20488;-78
2021/06/12 04:23:30;;;;;;;4.63;1.73;;;14.90;84.70;;;;;;5110138;28;20024;-77
2021/06/12 04:25:56;;;;;;;3.13;2.08;;;14.90;84.60;;;;;;5108404;28;20036;-78
2021/06/12 04:28:22;;;;;;;2.67;1.40;;;14.90;84.50;;;;;;5108435;28;20107;-77
2021/06/12 04:30:50;;;;;;;3.70;1.80;;;14.80;84.50;;;;;;5108825;28;20100;-76
2021/06/12 04:33:16;;;;;;;5.22;1.63;;;14.80;84.60;;;;;;5109267;28;20027;-80
2021/06/12 04:35:42;;;;;;;4.50;2.22;;;14.70;84.50;;;;;;5109001;28;20027;-77
2021/06/12 04:38:08;;;;;;;3.88;1.40;;;14.70;84.70;;;;;;5109759;28;20016;-79
2021/06/12 04:40:35;;;;;;;2.50;1.70;;;14.70;84.90;;;;;;5108848;28;20340;-77
2021/06/12 04:43:05;;;;;;;6.28;1.55;;;14.70;85.00;;;;;;5091808;28;20096;-80
2021/06/12 04:45:30;;;;;;;6.65;2.08;;;14.70;85.20;;;;;;5109057;28;20024;-79
2021/06/12 04:47:56;;;;;;;3.58;1.40;;;14.60;84.70;;;;;;5091700;28;20115;-78
2021/06/12 04:50:22;;;;;;;3.45;1.48;;;14.60;84.80;;;;;;5108509;28;20032;-76
2021/06/12 04:52:48;;;;;;;2.10;1.38;;;14.60;85.00;;;;;;5091667;28;20265;-77
2021/06/12 04:55:14;;;;;;;3.38;1.83;;;14.60;85.10;;;;;;5092102;28;20102;-78
2021/06/12 04:57:40;;;;;;;2.50;1.38;;;14.70;85.30;;;;;;5109414;28;20024;-78
2021/06/12 05:00:09;;;;;;;2.30;1.75;;;14.80;85.30;;;;;;5108629;28;20075;-78
2021/06/12 05:02:35;;;;;;;3.45;1.77;;;14.80;85.20;;;;;;5108521;28;20115;-78
2021/06/12 05:05:01;;;;;;;7.35;1.50;;;14.90;85.00;;;;;;5109036;28;20121;-76
2021/06/12 05:07:27;;;;;;;4.55;1.45;;;15.00;84.80;;;;;;5109308;28;20035;-81
2021/06/12 05:09:53;;;;;;;4.18;1.38;;;15.10;84.80;;;;;;5109838;28;20028;-80
2021/06/12 05:12:19;;;;;;;3.67;1.42;;;15.10;84.70;;;;;;5110459;28;20036;-78
2021/06/12 05:14:48;;;;;;;3.45;1.50;;;15.10;84.50;;;;;;5110023;28;20020;-79
2021/06/12 05:17:16;;;;;;;3.35;1.40;;;15.10;84.50;;;;;;5110435;28;20020;-81
2021/06/12 05:19:41;;;;;;;3.05;1.15;;;15.20;84.30;;;;;;5108598;28;20030;-79
2021/06/12 05:22:07;;;;;;;3.60;1.38;;;15.20;84.30;;;;;;5108546;28;20028;-79
2021/06/12 05:24:35;;;;;;;6.50;1.45;;;15.30;84.20;;;;;;5110124;28;20032;-79
2021/06/12 05:27:02;;;;;;;4.57;1.55;;;15.30;84.20;;;;;;5108119;28;20047;-79
2021/06/12 05:29:28;;;;;;;2.58;1.25;;;15.40;84.00;;;;;;5108269;28;20024;-79
2021/06/12 05:31:54;;;;;;;4.10;1.45;;;15.40;83.90;;;;;;5109068;28;21137;-80
2021/06/12 05:34:19;;;;;;;4.60;1.73;;;15.50;84.00;;;;;;5091070;28;20032;-80
2021/06/12 05:36:45;;;;;;;5.25;1.42;;;15.50;84.00;;;;;;5090780;28;20043;-79
2021/06/12 05:39:11;;;;;;;3.65;1.42;;;15.50;84.00;;;;;;5109391;28;20050;-80
2021/06/12 05:41:39;;;;;;;4.00;1.63;;;15.60;83.90;;;;;;5092207;28;20031;-79
2021/06/12 05:44:05;;;;;;;2.75;1.58;;;15.70;84.20;;;;;;5091139;28;20034;-78
2021/06/12 05:46:31;;;;;;;3.15;1.50;;;15.70;83.60;;;;;;5108061;28;20031;-78
2021/06/12 05:48:59;;;;;;;2.67;1.42;;;15.80;83.60;;;;;;5107969;28;20034;-78
2021/06/12 05:51:25;;;;;;;1.77;1.13;;;16.00;83.40;;;;;;5107753;28;20028;-81
2021/06/12 05:53:51;;;;;;;4.03;1.45;;;16.10;83.00;;;;;;5093946;28;20033;-80
2021/06/12 05:56:16;;;;;;;3.72;1.73;;;16.20;82.30;;;;;;5111946;28;20055;-78
2021/06/12 05:58:42;;;;;;;5.38;1.50;;;16.20;81.90;;;;;;5110975;28;20052;-79
2021/06/12 06:01:09;;;;;;;2.53;1.40;;;16.30;81.80;;;;;;5077869;28;20493;-78
2021/06/12 06:03:35;;;;;;;4.47;1.60;;;16.30;81.60;;;;;;5111490;28;20114;-77
2021/06/12 06:06:01;;;;;;;2.53;1.15;;;17.00;82.90;;;;;;5094197;28;20077;-79
2021/06/12 06:08:27;;;;;;;2.97;1.92;;;18.50;81.00;;;;;;5112557;28;20028;-78
2021/06/12 06:10:53;;;;;;;2.85;1.30;;;19.90;77.90;;;;;;5093929;28;20115;-75
2021/06/12 06:13:19;;;;;;;2.22;1.10;;;21.50;74.30;;;;;;5110915;28;20115;-79
2021/06/12 06:15:45;;;;;;;4.20;1.42;;;21.90;70.10;;;;;;5112125;28;20086;-77
2021/06/12 06:18:11;;;;;;;6.18;2.00;;;21.60;68.40;;;;;;5094542;28;20517;-78
2021/06/12 06:20:36;;;;;;;3.35;1.20;;;21.00;68.50;;;;;;5111775;28;20055;-78
2021/06/12 06:23:02;;;;;;;3.75;1.15;;;20.60;69.00;;;;;;5112795;28;20032;-78
2021/06/12 06:25:28;;;;;;;5.05;1.35;;;20.30;69.20;;;;;;5077459;28;20492;-78
2021/06/12 06:27:54;;;;;;;3.28;1.40;;;20.10;69.10;;;;;;5112760;28;20031;-77
2021/06/12 06:30:20;;;;;;;1.90;0.80;;;19.90;69.40;;;;;;5112568;28;20156;-76
2021/06/12 06:32:46;;;;;;;2.50;1.20;;;19.90;69.70;;;;;;5111664;28;20032;-79
2021/06/12 06:35:14;;;;;;;2.95;0.85;;;20.20;69.40;;;;;;5094300;28;20020;-79
2021/06/12 06:37:44;;;;;;;3.33;0.93;;;20.30;69.30;;;;;;5094816;28;20024;-77
2021/06/12 06:40:10;;;;;;;2.20;1.00;;;20.70;68.70;;;;;;5112273;27;20027;-67
2021/06/12 06:42:36;;;;;;;4.38;1.58;;;21.20;68.30;;;;;;5093864;28;20032;-77
2021/06/12 06:45:03;;;;;;;3.92;1.00;;;22.00;67.50;;;;;;5077221;28;20028;-78
2021/06/12 06:47:29;;;;;;;6.43;1.30;;;22.70;65.80;;;;;;5111859;28;20062;-79
2021/06/12 06:49:55;;;;;;;2.83;1.10;;;22.70;64.20;;;;;;5111161;28;20027;-78
2021/06/12 06:52:21;;;;;;;2.17;0.90;;;22.30;64.00;;;;;;5110649;28;20521;-78
2021/06/12 06:54:47;;;;;;;2.80;1.08;;;21.90;63.50;;;;;;5110859;28;20136;-78
2021/06/12 06:57:13;;;;;;;1.02;0.88;;;21.40;63.50;;;;;;5112004;28;20150;-80
2021/06/12 06:59:38;;;;;;;3.42;1.40;;;20.90;63.70;;;;;;5093268;28;20329;-78
2021/06/12 07:02:04;;;;;;;2.35;1.10;;;20.30;64.40;;;;;;5092734;28;20123;-76
2021/06/12 07:04:32;;;;;;;3.95;1.10;;;19.90;65.20;;;;;;5109247;28;20493;-80
2021/06/12 07:06:58;;;;;;;3.88;1.25;;;19.60;66.00;;;;;;5092897;28;20035;-78
2021/06/12 07:09:25;;;;;;;2.15;1.30;;;19.40;66.80;;;;;;5091951;28;20062;-77
2021/06/12 07:11:51;;;;;;;3.97;1.60;;;19.30;67.40;;;;;;5110337;28;20028;-80
2021/06/12 07:14:17;;;;;;;4.15;1.27;;;19.20;67.70;;;;;;5109363;28;20038;-80
2021/06/12 07:16:43;;;;;;;3.50;1.33;;;19.20;68.00;;;;;;5109343;28;20336;-77
2021/06/12 07:19:08;;;;;;;3.70;1.20;;;19.10;68.10;;;;;;5092481;28;20081;-77
2021/06/12 07:21:34;;;;;;;3.88;1.60;;;19.20;68.40;;;;;;5110738;28;20367;-76
2021/06/12 07:24:00;;;;;;;3.17;1.20;;;19.20;68.00;;;;;;5092225;28;20059;-78
2021/06/12 07:26:26;;;;;;;4.40;1.65;;;19.20;68.10;;;;;;5109161;28;20024;-76
2021/06/12 07:28:52;;;;;;;2.78;1.30;;;19.20;68.10;;;;;;5111081;28;20035;-78
2021/06/12 07:31:17;;;;;;;4.57;1.80;;;19.00;68.00;;;;;;5108986;28;20050;-78
2021/06/12 07:33:43;;;;;;;4.78;1.50;;;18.90;68.20;;;;;;5109405;28;20043;-79
2021/06/12 07:36:10;;;;;;;4.53;1.23;;;18.90;68.60;;;;;;5092469;28;20028;-79
2021/06/12 07:38:35;;;;;;;5.43;1.30;;;18.70;68.80;;;;;;5109093;28;20118;-80
2021/06/12 07:41:01;;;;;;;5.88;2.20;;;18.60;69.20;;;;;;5092074;28;20111;-78
2021/06/12 07:43:27;;;;;;;22.75;3.97;;;18.50;70.10;;;;;;5108900;28;20485;-79
2021/06/12 07:45:53;;;;;;;5.50;1.30;;;18.50;70.30;;;;;;5091967;28;20087;-80
2021/06/12 07:48:18;;;;;;;2.15;1.10;;;18.70;70.70;;;;;;5108779;28;20168;-79
2021/06/12 07:50:44;;;;;;;6.38;1.90;;;19.10;70.30;;;;;;5091711;28;20024;-78
2021/06/12 07:53:10;;;;;;;17.83;1.77;;;19.50;70.00;;;;;;5091197;28;20024;-76
2021/06/12 07:55:37;;;;;;;6.00;1.42;;;19.90;69.30;;;;;;5090711;28;20035;-78
2021/06/12 07:58:03;;;;;;;3.78;1.30;;;20.10;68.40;;;;;;5108119;28;20099;-80
2021/06/12 08:00:29;;;;;;;3.20;1.58;;;20.10;68.00;;;;;;5109351;28;20047;-81
2021/06/12 08:02:55;;;;;;;4.78;1.33;;;20.00;67.90;;;;;;5108284;28;20023;-80
2021/06/12 08:05:21;;;;;;;1.48;1.00;;;19.90;67.90;;;;;;5091578;28;20032;-78
2021/06/12 08:07:47;;;;;;;3.50;1.35;;;19.70;67.70;;;;;;5092504;28;20445;-80
2021/06/12 08:10:13;;;;;;;3.75;1.50;;;19.50;67.80;;;;;;5110299;27;20510;-81
2021/06/12 08:12:42;;;;;;;9.60;1.70;;;19.30;68.00;;;;;;5091077;28;20043;-78
2021/06/12 08:15:09;;;;;;;3.72;1.52;;;19.20;68.60;;;;;;5090445;28;20385;-77
2021/06/12 08:17:35;;;;;;;2.65;1.48;;;19.10;68.90;;;;;;5109525;28;20369;-78
2021/06/12 08:20:01;;;;;;;4.82;1.63;;;19.00;69.10;;;;;;5107876;28;20031;-81
2021/06/12 08:22:27;;;;;;;9.90;2.65;;;19.10;69.30;;;;;;5109617;28;20417;-79
2021/06/12 08:24:53;;;;;;;4.80;1.63;;;19.00;69.20;;;;;;5108157;28;20330;-79
2021/06/12 08:27:18;;;;;;;2.45;1.70;;;19.00;69.30;;;;;;5109319;28;20028;-77
2021/06/12 08:29:44;;;;;;;3.17;1.30;;;19.20;69.60;;;;;;5091119;28;20034;-80
2021/06/12 08:32:11;;;;;;;1.30;0.80;;;19.80;69.80;;;;;;5090653;28;20039;-79
2021/06/12 08:34:37;;;;;;;1.92;1.10;;;20.20;68.40;;;;;;5107681;28;20508;-81
2021/06/12 08:37:04;;;;;;;6.40;1.10;;;20.30;67.50;;;;;;5107729;28;20027;-81
2021/06/12 08:39:33;;;;;;;10.32;1.30;;;20.20;67.00;;;;;;5107149;28;20160;-77
2021/06/12 08:41:59;;;;;;;7.05;1.50;;;20.00;67.20;;;;;;5090731;28;20480;-80
2021/06/12 08:44:26;;;;;;;5.88;1.52;;;20.00;67.50;;;;;;5107677;28;20080;-80
2021/06/12 08:46:52;;;;;;;5.18;1.70;;;19.90;67.60;;;;;;5108054;28;20472;-80
2021/06/12 08:49:19;;;;;;;2.65;1.30;;;19.90;67.50;;;;;;5108506;28;20289;-81
2021/06/12 08:51:45;;;;;;;3.35;1.25;;;19.90;67.50;;;;;;5107616;28;20482;-79
2021/06/12 08:54:16;;;;;;;2.10;1.30;;;19.90;67.70;;;;;;5107656;28;20495;-80
2021/06/12 08:56:42;;;;;;;3.00;1.45;;;20.00;67.60;;;;;;5091524;28;20031;-79
2021/06/12 08:59:09;;;;;;;4.30;1.40;;;20.20;67.60;;;;;;5107112;28;20062;-82
2021/06/12 09:01:35;;;;;;;4.40;1.60;;;20.30;67.70;;;;;;5107325;28;20509;-79
2021/06/12 09:04:01;;;;;;;2.20;1.17;;;20.60;67.40;;;;;;5108320;28;20119;-79
2021/06/12 09:06:27;;;;;;;5.95;1.55;;;20.80;66.50;;;;;;5090010;28;20053;-79
2021/06/12 09:08:53;;;;;;;5.72;1.70;;;20.90;66.10;;;;;;5091917;28;20028;-78
2021/06/12 09:11:19;;;;;;;6.60;2.45;;;21.00;66.00;;;;;;5092546;28;20059;-80
2021/06/12 09:13:46;;;;;;;4.50;1.90;;;21.10;65.90;;;;;;5110837;28;20019;-79
2021/06/12 09:16:21;;;;;;;4.75;1.30;;;21.20;65.70;;;;;;5108686;28;20457;-79
2021/06/12 09:18:48;;;;;;;2.50;1.25;;;21.30;65.40;;;;;;5110461;28;20041;-79
2021/06/12 09:21:27;;;;;;;3.78;1.10;;;21.30;65.10;;;;;;5110416;28;20468;-82
2021/06/12 09:23:54;;;;;;;4.53;1.17;;;21.40;65.10;;;;;;5109006;28;20032;-79
2021/06/12 09:26:22;;;;;;;5.07;1.10;;;21.60;65.00;;;;;;5108811;28;20389;-77
2021/06/12 09:28:49;;;;;;;3.85;1.55;;;21.70;64.70;;;;;;5110704;27;20051;-77
2021/06/12 09:31:27;;;;;;;8.23;1.60;;;21.90;64.50;;;;;;5109659;28;20038;-78
2021/06/12 09:33:55;;;;;;;3.63;1.30;;;21.90;63.80;;;;;;5110120;28;20024;-78
2021/06/12 09:36:42;;;;;;;6.25;1.58;;;21.80;63.50;;;;;;5109558;28;20011;-80
2021/06/12 09:39:09;;;;;;;4.82;1.20;;;21.60;63.60;;;;;;5107770;28;20015;-77
2021/06/12 09:41:36;;;;;;;3.63;1.00;;;21.40;64.00;;;;;;5109447;28;20407;-79
2021/06/12 09:44:03;;;;;;;4.07;1.02;;;21.50;64.40;;;;;;5109618;28;20028;-79
2021/06/12 09:46:38;;;;;;;1.80;1.23;;;22.10;65.40;;;;;;5108560;28;20036;-77
2021/06/12 09:49:05;;;;;;;3.13;1.27;;;22.80;64.20;;;;;;5107914;28;20055;-79
2021/06/12 09:51:32;;;;;;;2.00;0.90;;;23.10;63.10;;;;;;5090667;28;20028;-79
2021/06/12 09:54:01;;;;;;;2.92;1.20;;;23.20;62.40;;;;;;5107879;28;20048;-79
2021/06/12 09:56:27;;;;;;;2.67;1.05;;;23.20;61.80;;;;;;5108422;28;20032;-79
2021/06/12 09:58:55;;;;;;;4.88;1.20;;;23.30;61.70;;;;;;5109524;28;20047;-78
2021/06/12 10:01:24;;;;;;;3.63;1.05;;;23.50;61.00;;;;;;5109960;28;20059;-81
2021/06/12 10:04:11;;;;;;;7.60;1.25;;;23.40;60.40;;;;;;5109092;28;20030;-81
2021/06/12 10:06:38;;;;;;;5.55;1.23;;;23.10;60.20;;;;;;5109600;28;20035;-78
2021/06/12 10:09:05;;;;;;;7.65;1.20;;;23.00;60.60;;;;;;5107915;28;20086;-78
2021/06/12 10:11:35;;;;;;;2.88;1.15;;;22.90;60.70;;;;;;5107364;28;20043;-79
2021/06/12 10:14:01;;;;;;;6.68;1.13;;;23.00;61.00;;;;;;5121790;27;20032;-81
2021/06/12 10:16:29;;;;;;;2.83;1.00;;;23.40;61.30;;;;;;5108124;28;20081;-78
2021/06/12 10:18:56;;;;;;;3.10;0.88;;;24.00;60.70;;;;;;5108104;28;20020;-79
2021/06/12 10:21:23;;;;;;;1.42;0.70;;;24.50;59.60;;;;;;5107837;28;20019;-81
2021/06/12 10:23:50;;;;;;;3.65;1.20;;;24.60;59.10;;;;;;5091009;28;20397;-81
2021/06/12 10:26:18;;;;;;;4.60;1.20;;;24.70;58.60;;;;;;5109383;28;20084;-77
2021/06/12 10:28:45;;;;;;;2.07;1.17;;;24.90;58.30;;;;;;5108835;28;20103;-79
2021/06/12 10:31:20;;;;;;;2.83;1.30;;;24.90;57.60;;;;;;5108105;28;20032;-80
2021/06/12 10:33:48;;;;;;;5.97;1.42;;;24.60;56.80;;;;;;5108953;28;20050;-79
2021/06/12 10:36:24;;;;;;;1.60;0.88;;;24.20;57.20;;;;;;5108655;28;20055;-79
2021/06/12 10:38:51;;;;;;;5.30;1.13;;;23.90;57.60;;;;;;5109511;28;20095;-80
2021/06/12 10:41:22;;;;;;;2.00;0.98;;;23.80;57.90;;;;;;5111521;28;20055;-80
2021/06/12 10:44:02;;;;;;;2.80;0.90;;;23.80;58.10;;;;;;5112160;28;20066;-81
2021/06/12 10:46:30;;;;;;;1.80;0.90;;;24.00;58.00;;;;;;5113607;28;20020;-79
2021/06/12 10:49:04;;;;;;;5.20;1.10;;;24.10;57.60;;;;;;5111968;28;20047;-81
2021/06/12 10:51:33;;;;;;;4.80;1.13;;;24.10;57.20;;;;;;5112364;28;20088;-78
2021/06/12 10:54:24;;;;;;;;;;;24.10;57.40;;;;;;5112109;28;20024;-79
2021/06/12 10:56:52;;;;;;;2.20;1.48;;;24.00;57.90;;;;;;5113186;28;19943;-78
2021/06/12 10:59:32;;;;;;;2.90;1.35;;;24.10;57.80;;;;;;5113145;28;20635;-80
2021/06/12 11:02:17;;;;;;;6.88;1.17;;;24.20;57.70;;;;;;5111774;28;20149;-80
2021/06/12 11:04:50;;;;;;;3.03;1.10;;;24.40;57.60;;;;;;5096586;28;20461;-80
2021/06/12 11:07:36;;;;;;;1.27;0.93;;;24.60;57.00;;;;;;5112745;28;20449;-80
2021/06/12 11:10:15;;;;;;;5.90;1.05;;;24.70;56.50;;;;;;5111283;28;20360;-79
2021/06/12 11:12:47;;;;;;;2.35;1.20;;;24.80;56.40;;;;;;5112028;28;20478;-81
2021/06/12 11:15:21;;;;;;;2.30;1.20;;;24.70;56.20;;;;;;5112821;28;20370;-79
2021/06/12 11:18:33;;;;;;;5.50;1.35;;;24.50;56.30;;;;;;5111138;28;20470;-78
2021/06/12 11:21:01;;;;;;;4.97;1.20;;;24.40;56.30;;;;;;5109991;28;20494;-80
2021/06/12 11:23:44;;;;;;;2.13;1.00;;;24.20;56.40;;;;;;5111250;28;20046;-80
2021/06/12 11:26:11;;;;;;;2.42;1.10;;;24.00;56.50;;;;;;5111617;28;20016;-79
2021/06/12 11:28:39;;;;;;;3.13;1.30;;;23.90;56.70;;;;;;5094544;28;20038;-81
2021/06/12 11:31:35;;;;;;;3.67;1.40;;;23.70;56.80;;;;;;5094883;28;20019;-81
2021/06/12 11:34:24;;;;;;;2.88;1.60;;;23.50;56.90;;;;;;5095048;28;20034;-78
2021/06/12 11:37:12;;;;;;;4.10;1.55;;;23.40;57.30;;;;;;5113336;28;20562;-81
2021/06/12 11:39:51;;;;;;;5.53;1.20;;;23.30;57.30;;;;;;5097006;28;20039;-80
2021/06/12 11:42:17;;;;;;;2.92;1.08;;;23.10;57.70;;;;;;5110967;28;20016;-79
2021/06/12 11:44:43;;;;;;;2.13;1.23;;;23.20;58.20;;;;;;5112558;28;20094;-78
2021/06/12 11:47:09;;;;;;;3.13;1.67;;;23.40;58.50;;;;;;5093419;28;20080;-80
2021/06/12 11:49:35;;;;;;;7.05;1.90;;;23.70;58.50;;;;;;5111882;28;20044;-80
2021/06/12 11:52:00;;;;;;;4.28;1.80;;;23.90;58.20;;;;;;5109608;28;20023;-80
2021/06/12 11:54:31;;;;;;;3.35;1.65;;;24.10;57.80;;;;;;5076998;28;20035;-78
2021/06/12 11:57:05;;;;;;;2.00;1.45;;;24.10;57.30;;;;;;5112065;28;20474;-80
2021/06/12 11:59:32;;;;;;;2.28;1.50;;;24.10;57.30;;;;;;5091316;28;20040;-79
2021/06/12 12:02:06;;;;;;;3.30;1.65;;;24.40;57.70;;;;;;5101154;28;20046;-80
2021/06/12 12:04:41;;;;;;;5.53;1.58;;;24.80;57.20;;;;;;5111792;28;20020;-79
2021/06/12 12:07:09;;;;;;;4.93;1.50;;;24.90;56.60;;;;;;5112357;28;20102;-78
2021/06/12 12:09:36;;;;;;;5.95;1.20;;;25.10;56.70;;;;;;5110594;28;20523;-79
2021/06/12 12:12:07;;;;;;;3.03;1.17;;;25.20;56.50;;;;;;5111967;28;20016;-79
2021/06/12 12:14:47;;;;;;;2.22;1.40;;;25.50;56.10;;;;;;5110526;28;20102;-78
2021/06/12 12:17:27;;;;;;;5.00;1.30;;;25.60;55.50;;;;;;5104558;28;20026;-79
2021/06/12 12:20:03;;;;;;;3.30;1.05;;;25.40;55.30;;;;;;5091810;28;20070;-79
2021/06/12 12:22:40;;;;;;;2.30;0.90;;;25.10;55.00;;;;;;5077350;28;20059;-78
2021/06/12 12:25:09;;;;;;;3.78;1.40;;;24.70;55.10;;;;;;5112725;28;20310;-79
2021/06/12 12:27:34;;;;;;;1.65;1.23;;;24.40;55.50;;;;;;5111711;28;20051;-80
2021/06/12 12:30:00;;;;;;;5.40;1.50;;;24.20;56.10;;;;;;5076585;28;20050;-80
2021/06/12 12:32:26;;;;;;;3.88;1.27;;;24.40;56.60;;;;;;5111004;28;20050;-79
2021/06/12 12:34:52;;;;;;;3.03;1.20;;;25.10;56.80;;;;;;5122494;27;20050;-78
2021/06/12 12:37:20;;;;;;;2.78;1.30;;;25.70;56.20;;;;;;5111472;28;20027;-78
2021/06/12 12:39:48;;;;;;;2.38;1.48;;;26.20;55.30;;;;;;5112439;28;20015;-81
2021/06/12 12:42:17;;;;;;;3.88;1.33;;;26.40;54.80;;;;;;5110670;28;20115;-80
2021/06/12 12:44:45;;;;;;;3.20;1.58;;;26.40;54.10;;;;;;5110631;28;20030;-79
2021/06/12 12:47:13;;;;;;;5.32;1.17;;;26.30;54.10;;;;;;5111881;28;20051;-79
2021/06/12 12:49:42;;;;;;;4.22;1.60;;;26.20;54.10;;;;;;5094007;28;20557;-77
2021/06/12 12:52:19;;;;;;;4.43;1.50;;;26.20;53.90;;;;;;5093744;28;20036;-81
2021/06/12 12:55:05;;;;;;;2.83;1.10;;;26.30;54.40;;;;;;5112300;28;20024;-80